Warm Lake, Idaho
Current Conditions -  °F | °C
As of 11:51 PM on Friday 28 Nov 2014 (Local Time) from KMYL Reporting Station
Overcast Overcast  
Wind Chill: 33°   Ceiling: 3900
Heat Index: 41°   Visibility: 10mi
Dew Point: 31°   Wind: 16mph
Humidity: 67%   Direction: 200°SSW
Pressure: 29.54"   Gusts: 26mph
Location:  44.4236°N, 115.8°W
Report Text: KMYL 290651Z AUTO 20014G23KT 10SM BKN039 OVC048 05/M01 A2954 RMK AO2 PK WND 18029/0556 SLP997 T00501006 400610011
Loading
Personal Weather Stations






























Interactive Weather Map New forecast layout! Learn more

10-Day Weather Forecast

Advertisements
Track Severe Weather on mobile